sensor_id;sensor_type;location;lat;lon;timestamp;P1;durP1;ratioP1;P2;durP2;ratioP2
48241;SDS011;34041;51.812;4.622;2023-04-16T00:00:17;5.90;;;2.30;;
48241;SDS011;34041;51.812;4.622;2023-04-16T00:03:18;9.07;;;2.10;;
48241;SDS011;34041;51.812;4.622;2023-04-16T00:06:18;4.83;;;2.30;;
48241;SDS011;34041;51.812;4.622;2023-04-16T00:09:18;7.70;;;2.97;;
48241;SDS011;34041;51.812;4.622;2023-04-16T00:12:18;5.78;;;2.30;;
48241;SDS011;34041;51.812;4.622;2023-04-16T00:15:19;4.90;;;2.07;;
48241;SDS011;34041;51.812;4.622;2023-04-16T00:18:19;5.43;;;1.57;;
48241;SDS011;34041;51.812;4.622;2023-04-16T00:21:20;5.22;;;2.08;;
48241;SDS011;34041;51.812;4.622;2023-04-16T00:24:20;5.00;;;1.90;;
48241;SDS011;34041;51.812;4.622;2023-04-16T00:27:20;8.13;;;2.50;;
48241;SDS011;34041;51.812;4.622;2023-04-16T00:30:21;10.60;;;2.92;;
48241;SDS011;34041;51.812;4.622;2023-04-16T00:33:22;11.90;;;2.55;;
48241;SDS011;34041;51.812;4.622;2023-04-16T00:36:22;7.35;;;2.60;;
48241;SDS011;34041;51.812;4.622;2023-04-16T00:39:23;8.07;;;2.75;;
48241;SDS011;34041;51.812;4.622;2023-04-16T00:42:23;7.87;;;3.03;;
48241;SDS011;34041;51.812;4.622;2023-04-16T00:45:23;8.90;;;2.63;;
48241;SDS011;34041;51.812;4.622;2023-04-16T00:48:24;5.55;;;2.25;;
48241;SDS011;34041;51.812;4.622;2023-04-16T00:51:27;8.20;;;2.22;;
48241;SDS011;34041;51.812;4.622;2023-04-16T00:54:27;7.13;;;1.98;;
48241;SDS011;34041;51.812;4.622;2023-04-16T00:57:28;7.75;;;2.28;;
48241;SDS011;34041;51.812;4.622;2023-04-16T01:00:28;9.07;;;2.70;;
48241;SDS011;34041;51.812;4.622;2023-04-16T01:03:37;6.90;;;2.22;;
48241;SDS011;34041;51.812;4.622;2023-04-16T01:06:38;9.35;;;2.60;;
48241;SDS011;34041;51.812;4.622;2023-04-16T01:09:38;4.28;;;2.00;;
48241;SDS011;34041;51.812;4.622;2023-04-16T01:12:39;6.57;;;2.38;;
48241;SDS011;34041;51.812;4.622;2023-04-16T01:15:39;10.20;;;2.50;;
48241;SDS011;34041;51.812;4.622;2023-04-16T01:18:39;12.60;;;3.07;;
48241;SDS011;34041;51.812;4.622;2023-04-16T01:21:40;5.85;;;2.00;;
48241;SDS011;34041;51.812;4.622;2023-04-16T01:24:40;5.68;;;2.20;;
48241;SDS011;34041;51.812;4.622;2023-04-16T01:27:40;4.20;;;1.77;;
48241;SDS011;34041;51.812;4.622;2023-04-16T01:30:41;5.88;;;1.95;;
48241;SDS011;34041;51.812;4.622;2023-04-16T01:33:41;9.93;;;3.78;;
48241;SDS011;34041;51.812;4.622;2023-04-16T01:36:41;14.15;;;2.60;;
48241;SDS011;34041;51.812;4.622;2023-04-16T01:39:41;4.93;;;1.98;;
48241;SDS011;34041;51.812;4.622;2023-04-16T01:42:41;6.80;;;1.83;;
48241;SDS011;34041;51.812;4.622;2023-04-16T01:45:42;7.77;;;2.37;;
48241;SDS011;34041;51.812;4.622;2023-04-16T01:48:42;6.32;;;1.90;;
48241;SDS011;34041;51.812;4.622;2023-04-16T01:51:42;7.70;;;2.58;;
48241;SDS011;34041;51.812;4.622;2023-04-16T01:54:42;10.33;;;2.80;;
48241;SDS011;34041;51.812;4.622;2023-04-16T01:57:43;6.57;;;2.20;;
48241;SDS011;34041;51.812;4.622;2023-04-16T02:00:43;9.10;;;2.40;;
48241;SDS011;34041;51.812;4.622;2023-04-16T02:03:43;9.90;;;3.23;;
48241;SDS011;34041;51.812;4.622;2023-04-16T02:06:43;6.30;;;1.95;;
48241;SDS011;34041;51.812;4.622;2023-04-16T02:09:44;5.67;;;2.00;;
48241;SDS011;34041;51.812;4.622;2023-04-16T02:12:44;9.65;;;1.88;;
48241;SDS011;34041;51.812;4.622;2023-04-16T02:15:47;7.80;;;2.35;;
48241;SDS011;34041;51.812;4.622;2023-04-16T02:18:47;8.27;;;1.90;;
48241;SDS011;34041;51.812;4.622;2023-04-16T02:21:47;5.03;;;2.50;;
48241;SDS011;34041;51.812;4.622;2023-04-16T02:24:48;6.90;;;2.50;;
48241;SDS011;34041;51.812;4.622;2023-04-16T02:27:49;10.63;;;2.80;;
48241;SDS011;34041;51.812;4.622;2023-04-16T02:30:49;6.88;;;2.33;;
48241;SDS011;34041;51.812;4.622;2023-04-16T02:33:50;6.30;;;2.63;;
48241;SDS011;34041;51.812;4.622;2023-04-16T02:36:50;5.20;;;2.25;;
48241;SDS011;34041;51.812;4.622;2023-04-16T02:39:50;11.87;;;3.20;;
48241;SDS011;34041;51.812;4.622;2023-04-16T02:42:52;11.10;;;3.65;;
48241;SDS011;34041;51.812;4.622;2023-04-16T02:45:52;7.90;;;3.05;;
48241;SDS011;34041;51.812;4.622;2023-04-16T02:48:52;6.82;;;2.72;;
48241;SDS011;34041;51.812;4.622;2023-04-16T02:51:53;7.18;;;3.28;;
48241;SDS011;34041;51.812;4.622;2023-04-16T02:54:53;9.80;;;2.70;;
48241;SDS011;34041;51.812;4.622;2023-04-16T02:57:53;6.43;;;3.00;;
48241;SDS011;34041;51.812;4.622;2023-04-16T03:00:53;6.03;;;3.38;;
48241;SDS011;34041;51.812;4.622;2023-04-16T03:03:54;7.63;;;3.27;;
48241;SDS011;34041;51.812;4.622;2023-04-16T03:06:54;5.00;;;2.77;;
48241;SDS011;34041;51.812;4.622;2023-04-16T03:09:54;7.87;;;3.73;;
48241;SDS011;34041;51.812;4.622;2023-04-16T03:12:54;8.50;;;2.73;;
48241;SDS011;34041;51.812;4.622;2023-04-16T03:15:54;4.85;;;2.13;;
48241;SDS011;34041;51.812;4.622;2023-04-16T03:18:55;10.63;;;3.80;;
48241;SDS011;34041;51.812;4.622;2023-04-16T03:21:55;5.90;;;2.60;;
48241;SDS011;34041;51.812;4.622;2023-04-16T03:24:55;4.10;;;2.67;;
48241;SDS011;34041;51.812;4.622;2023-04-16T03:27:55;10.27;;;2.83;;
48241;SDS011;34041;51.812;4.622;2023-04-16T03:30:56;6.33;;;2.47;;
48241;SDS011;34041;51.812;4.622;2023-04-16T03:33:56;8.77;;;3.10;;
48241;SDS011;34041;51.812;4.622;2023-04-16T03:36:56;9.53;;;2.80;;
48241;SDS011;34041;51.812;4.622;2023-04-16T03:39:56;5.97;;;2.97;;
48241;SDS011;34041;51.812;4.622;2023-04-16T03:42:56;10.05;;;3.13;;
48241;SDS011;34041;51.812;4.622;2023-04-16T03:45:57;5.27;;;2.37;;
48241;SDS011;34041;51.812;4.622;2023-04-16T03:48:57;8.90;;;3.10;;
48241;SDS011;34041;51.812;4.622;2023-04-16T03:51:57;6.80;;;2.50;;
48241;SDS011;34041;51.812;4.622;2023-04-16T03:54:57;8.27;;;2.67;;
48241;SDS011;34041;51.812;4.622;2023-04-16T03:57:58;6.57;;;2.38;;
48241;SDS011;34041;51.812;4.622;2023-04-16T04:01:01;8.35;;;2.40;;
48241;SDS011;34041;51.812;4.622;2023-04-16T04:04:02;6.23;;;2.40;;
48241;SDS011;34041;51.812;4.622;2023-04-16T04:07:02;8.63;;;2.78;;
48241;SDS011;34041;51.812;4.622;2023-04-16T04:10:02;6.63;;;2.72;;
48241;SDS011;34041;51.812;4.622;2023-04-16T04:13:03;8.05;;;3.97;;
48241;SDS011;34041;51.812;4.622;2023-04-16T04:16:04;8.70;;;2.97;;
48241;SDS011;34041;51.812;4.622;2023-04-16T04:19:04;7.30;;;3.30;;
48241;SDS011;34041;51.812;4.622;2023-04-16T04:22:05;8.23;;;3.05;;
48241;SDS011;34041;51.812;4.622;2023-04-16T04:25:05;7.90;;;2.43;;
48241;SDS011;34041;51.812;4.622;2023-04-16T04:28:05;6.80;;;2.65;;
48241;SDS011;34041;51.812;4.622;2023-04-16T04:31:05;8.85;;;3.08;;
48241;SDS011;34041;51.812;4.622;2023-04-16T04:34:06;5.80;;;2.27;;
48241;SDS011;34041;51.812;4.622;2023-04-16T04:37:06;9.37;;;4.13;;
48241;SDS011;34041;51.812;4.622;2023-04-16T04:40:06;7.23;;;3.70;;
48241;SDS011;34041;51.812;4.622;2023-04-16T04:43:07;6.38;;;3.30;;
48241;SDS011;34041;51.812;4.622;2023-04-16T04:46:07;7.97;;;3.07;;
48241;SDS011;34041;51.812;4.622;2023-04-16T04:49:07;13.73;;;5.13;;
48241;SDS011;34041;51.812;4.622;2023-04-16T04:52:07;6.60;;;3.15;;
48241;SDS011;34041;51.812;4.622;2023-04-16T04:55:08;10.63;;;2.57;;
48241;SDS011;34041;51.812;4.622;2023-04-16T04:58:08;11.32;;;3.28;;
48241;SDS011;34041;51.812;4.622;2023-04-16T05:01:08;5.80;;;2.70;;
48241;SDS011;34041;51.812;4.622;2023-04-16T05:04:08;8.83;;;2.27;;
48241;SDS011;34041;51.812;4.622;2023-04-16T05:07:09;9.93;;;2.67;;
48241;SDS011;34041;51.812;4.622;2023-04-16T05:10:09;7.30;;;2.50;;
48241;SDS011;34041;51.812;4.622;2023-04-16T05:13:09;5.75;;;2.40;;
48241;SDS011;34041;51.812;4.622;2023-04-16T05:16:10;8.15;;;2.65;;
48241;SDS011;34041;51.812;4.622;2023-04-16T05:19:10;2.73;;;1.67;;
48241;SDS011;34041;51.812;4.622;2023-04-16T05:22:10;4.00;;;2.13;;
48241;SDS011;34041;51.812;4.622;2023-04-16T05:25:11;4.47;;;2.40;;
48241;SDS011;34041;51.812;4.622;2023-04-16T05:28:11;4.10;;;2.30;;
48241;SDS011;34041;51.812;4.622;2023-04-16T05:31:11;4.93;;;1.90;;
48241;SDS011;34041;51.812;4.622;2023-04-16T05:34:12;6.93;;;2.70;;
48241;SDS011;34041;51.812;4.622;2023-04-16T05:37:12;6.32;;;2.00;;
48241;SDS011;34041;51.812;4.622;2023-04-16T05:40:12;6.90;;;2.17;;
48241;SDS011;34041;51.812;4.622;2023-04-16T05:43:13;5.20;;;2.20;;
48241;SDS011;34041;51.812;4.622;2023-04-16T05:46:13;7.83;;;2.93;;
48241;SDS011;34041;51.812;4.622;2023-04-16T05:49:13;6.30;;;2.10;;
48241;SDS011;34041;51.812;4.622;2023-04-16T05:52:14;5.90;;;1.63;;
48241;SDS011;34041;51.812;4.622;2023-04-16T05:55:14;5.70;;;1.60;;
48241;SDS011;34041;51.812;4.622;2023-04-16T05:58:15;5.67;;;2.13;;
48241;SDS011;34041;51.812;4.622;2023-04-16T06:01:15;5.93;;;2.23;;
48241;SDS011;34041;51.812;4.622;2023-04-16T06:04:15;4.73;;;2.50;;
48241;SDS011;34041;51.812;4.622;2023-04-16T06:07:15;7.87;;;3.33;;
48241;SDS011;34041;51.812;4.622;2023-04-16T06:10:15;4.38;;;1.90;;
48241;SDS011;34041;51.812;4.622;2023-04-16T06:13:16;5.63;;;2.30;;
48241;SDS011;34041;51.812;4.622;2023-04-16T06:16:16;4.95;;;2.40;;
48241;SDS011;34041;51.812;4.622;2023-04-16T06:19:16;5.47;;;2.33;;
48241;SDS011;34041;51.812;4.622;2023-04-16T06:22:16;6.17;;;2.33;;
48241;SDS011;34041;51.812;4.622;2023-04-16T06:25:17;7.07;;;2.00;;
48241;SDS011;34041;51.812;4.622;2023-04-16T06:28:17;5.13;;;2.10;;
48241;SDS011;34041;51.812;4.622;2023-04-16T06:31:17;6.13;;;2.30;;
48241;SDS011;34041;51.812;4.622;2023-04-16T06:34:17;4.47;;;2.13;;
48241;SDS011;34041;51.812;4.622;2023-04-16T06:37:18;6.32;;;2.38;;
48241;SDS011;34041;51.812;4.622;2023-04-16T06:40:18;4.87;;;1.80;;
48241;SDS011;34041;51.812;4.622;2023-04-16T06:43:18;5.85;;;2.10;;
48241;SDS011;34041;51.812;4.622;2023-04-16T06:46:18;3.88;;;2.17;;
48241;SDS011;34041;51.812;4.622;2023-04-16T06:49:19;4.30;;;2.03;;
48241;SDS011;34041;51.812;4.622;2023-04-16T06:52:19;4.10;;;1.73;;
48241;SDS011;34041;51.812;4.622;2023-04-16T06:55:19;6.57;;;2.57;;
48241;SDS011;34041;51.812;4.622;2023-04-16T06:58:19;3.92;;;1.63;;
48241;SDS011;34041;51.812;4.622;2023-04-16T07:01:21;2.85;;;1.67;;
48241;SDS011;34041;51.812;4.622;2023-04-16T07:04:22;4.75;;;1.90;;
48241;SDS011;34041;51.812;4.622;2023-04-16T07:07:22;3.72;;;2.17;;
48241;SDS011;34041;51.812;4.622;2023-04-16T07:10:22;6.17;;;2.20;;
48241;SDS011;34041;51.812;4.622;2023-04-16T07:13:22;7.13;;;2.70;;
48241;SDS011;34041;51.812;4.622;2023-04-16T07:16:23;5.40;;;2.17;;
48241;SDS011;34041;51.812;4.622;2023-04-16T07:19:23;3.13;;;1.65;;
48241;SDS011;34041;51.812;4.622;2023-04-16T07:22:23;7.10;;;2.45;;
48241;SDS011;34041;51.812;4.622;2023-04-16T07:25:24;4.85;;;2.20;;
48241;SDS011;34041;51.812;4.622;2023-04-16T07:28:24;4.70;;;2.30;;
48241;SDS011;34041;51.812;4.622;2023-04-16T07:31:25;6.40;;;2.37;;
48241;SDS011;34041;51.812;4.622;2023-04-16T07:34:25;4.05;;;2.03;;
48241;SDS011;34041;51.812;4.622;2023-04-16T07:37:26;4.40;;;2.17;;
48241;SDS011;34041;51.812;4.622;2023-04-16T07:40:26;4.78;;;2.35;;
48241;SDS011;34041;51.812;4.622;2023-04-16T07:43:26;3.75;;;2.17;;
48241;SDS011;34041;51.812;4.622;2023-04-16T07:46:26;4.93;;;2.63;;
48241;SDS011;34041;51.812;4.622;2023-04-16T07:49:27;3.70;;;2.00;;
48241;SDS011;34041;51.812;4.622;2023-04-16T07:52:27;5.13;;;2.43;;
48241;SDS011;34041;51.812;4.622;2023-04-16T07:55:27;6.47;;;2.77;;
48241;SDS011;34041;51.812;4.622;2023-04-16T07:58:27;4.07;;;2.17;;
48241;SDS011;34041;51.812;4.622;2023-04-16T08:01:27;6.33;;;2.60;;
48241;SDS011;34041;51.812;4.622;2023-04-16T08:04:28;5.20;;;2.90;;
48241;SDS011;34041;51.812;4.622;2023-04-16T08:07:28;5.20;;;2.97;;
48241;SDS011;34041;51.812;4.622;2023-04-16T08:10:28;4.23;;;2.70;;
48241;SDS011;34041;51.812;4.622;2023-04-16T08:13:28;5.57;;;2.40;;
48241;SDS011;34041;51.812;4.622;2023-04-16T08:16:28;7.60;;;2.90;;
48241;SDS011;34041;51.812;4.622;2023-04-16T08:19:29;5.73;;;3.50;;
48241;SDS011;34041;51.812;4.622;2023-04-16T08:22:29;6.32;;;3.35;;
48241;SDS011;34041;51.812;4.622;2023-04-16T08:25:29;7.65;;;3.95;;
48241;SDS011;34041;51.812;4.622;2023-04-16T08:28:30;6.87;;;4.50;;
48241;SDS011;34041;51.812;4.622;2023-04-16T08:31:30;6.95;;;4.07;;
48241;SDS011;34041;51.812;4.622;2023-04-16T08:34:30;6.25;;;2.97;;
48241;SDS011;34041;51.812;4.622;2023-04-16T08:37:31;5.03;;;3.05;;
48241;SDS011;34041;51.812;4.622;2023-04-16T08:40:31;7.27;;;3.33;;
48241;SDS011;34041;51.812;4.622;2023-04-16T08:43:32;5.88;;;3.08;;
48241;SDS011;34041;51.812;4.622;2023-04-16T08:46:35;6.53;;;3.20;;
48241;SDS011;34041;51.812;4.622;2023-04-16T08:49:36;7.13;;;3.38;;
48241;SDS011;34041;51.812;4.622;2023-04-16T08:52:48;5.10;;;3.30;;
48241;SDS011;34041;51.812;4.622;2023-04-16T08:55:49;5.72;;;3.63;;
48241;SDS011;34041;51.812;4.622;2023-04-16T08:58:50;4.85;;;3.33;;
48241;SDS011;34041;51.812;4.622;2023-04-16T09:01:54;13.00;;;4.68;;
48241;SDS011;34041;51.812;4.622;2023-04-16T09:04:55;9.50;;;4.55;;
48241;SDS011;34041;51.812;4.622;2023-04-16T09:07:55;12.10;;;5.32;;
48241;SDS011;34041;51.812;4.622;2023-04-16T09:10:55;9.90;;;5.22;;
48241;SDS011;34041;51.812;4.622;2023-04-16T09:13:56;8.68;;;4.28;;
48241;SDS011;34041;51.812;4.622;2023-04-16T09:16:57;7.72;;;4.70;;
48241;SDS011;34041;51.812;4.622;2023-04-16T09:20:00;12.57;;;5.88;;
48241;SDS011;34041;51.812;4.622;2023-04-16T09:23:00;10.23;;;5.65;;
48241;SDS011;34041;51.812;4.622;2023-04-16T09:26:00;13.97;;;5.63;;
48241;SDS011;34041;51.812;4.622;2023-04-16T09:29:01;10.57;;;5.85;;
48241;SDS011;34041;51.812;4.622;2023-04-16T09:32:02;8.63;;;5.15;;
48241;SDS011;34041;51.812;4.622;2023-04-16T09:35:03;8.52;;;5.18;;
48241;SDS011;34041;51.812;4.622;2023-04-16T09:38:03;9.05;;;5.25;;
48241;SDS011;34041;51.812;4.622;2023-04-16T09:41:07;8.27;;;5.03;;
48241;SDS011;34041;51.812;4.622;2023-04-16T09:44:07;11.07;;;6.25;;
48241;SDS011;34041;51.812;4.622;2023-04-16T09:47:08;8.50;;;6.05;;
48241;SDS011;34041;51.812;4.622;2023-04-16T09:50:09;7.80;;;5.05;;
48241;SDS011;34041;51.812;4.622;2023-04-16T09:53:09;11.55;;;5.60;;
48241;SDS011;34041;51.812;4.622;2023-04-16T09:56:10;12.30;;;5.67;;
48241;SDS011;34041;51.812;4.622;2023-04-16T09:59:17;11.85;;;5.90;;
48241;SDS011;34041;51.812;4.622;2023-04-16T10:02:17;10.02;;;5.68;;
48241;SDS011;34041;51.812;4.622;2023-04-16T10:05:19;9.48;;;5.00;;
48241;SDS011;34041;51.812;4.622;2023-04-16T10:08:19;13.25;;;7.60;;
48241;SDS011;34041;51.812;4.622;2023-04-16T10:11:19;15.63;;;6.10;;
48241;SDS011;34041;51.812;4.622;2023-04-16T10:14:20;12.15;;;7.28;;
48241;SDS011;34041;51.812;4.622;2023-04-16T10:17:20;8.80;;;6.10;;
48241;SDS011;34041;51.812;4.622;2023-04-16T10:20:21;10.82;;;5.38;;
48241;SDS011;34041;51.812;4.622;2023-04-16T10:23:21;8.70;;;6.40;;
48241;SDS011;34041;51.812;4.622;2023-04-16T10:26:22;14.10;;;7.32;;
48241;SDS011;34041;51.812;4.622;2023-04-16T10:29:23;10.27;;;7.43;;
48241;SDS011;34041;51.812;4.622;2023-04-16T10:32:24;11.60;;;6.90;;
48241;SDS011;34041;51.812;4.622;2023-04-16T10:35:27;10.40;;;6.07;;
48241;SDS011;34041;51.812;4.622;2023-04-16T10:38:27;13.68;;;5.47;;
48241;SDS011;34041;51.812;4.622;2023-04-16T10:41:28;15.60;;;6.00;;
48241;SDS011;34041;51.812;4.622;2023-04-16T10:44:31;12.02;;;6.20;;
48241;SDS011;34041;51.812;4.622;2023-04-16T10:47:31;12.77;;;7.53;;
48241;SDS011;34041;51.812;4.622;2023-04-16T10:50:38;10.27;;;6.75;;
48241;SDS011;34041;51.812;4.622;2023-04-16T10:53:40;13.25;;;7.15;;
48241;SDS011;34041;51.812;4.622;2023-04-16T10:56:40;11.23;;;7.18;;
48241;SDS011;34041;51.812;4.622;2023-04-16T10:59:43;13.68;;;7.18;;
48241;SDS011;34041;51.812;4.622;2023-04-16T11:02:43;16.50;;;7.35;;
48241;SDS011;34041;51.812;4.622;2023-04-16T11:05:44;11.75;;;6.78;;
48241;SDS011;34041;51.812;4.622;2023-04-16T11:08:45;24.70;;;9.18;;
48241;SDS011;34041;51.812;4.622;2023-04-16T11:11:46;16.95;;;9.75;;
48241;SDS011;34041;51.812;4.622;2023-04-16T11:14:53;12.80;;;9.27;;
48241;SDS011;34041;51.812;4.622;2023-04-16T11:17:54;13.15;;;9.40;;
48241;SDS011;34041;51.812;4.622;2023-04-16T11:20:54;16.77;;;8.55;;
48241;SDS011;34041;51.812;4.622;2023-04-16T11:23:56;16.33;;;8.45;;
48241;SDS011;34041;51.812;4.622;2023-04-16T11:26:56;11.25;;;7.70;;
48241;SDS011;34041;51.812;4.622;2023-04-16T11:30:00;11.65;;;8.40;;
48241;SDS011;34041;51.812;4.622;2023-04-16T11:33:04;18.30;;;9.60;;
48241;SDS011;34041;51.812;4.622;2023-04-16T11:36:04;14.10;;;8.63;;
48241;SDS011;34041;51.812;4.622;2023-04-16T11:39:05;13.68;;;7.88;;
48241;SDS011;34041;51.812;4.622;2023-04-16T11:42:05;14.03;;;7.53;;
48241;SDS011;34041;51.812;4.622;2023-04-16T11:45:06;13.67;;;8.33;;
48241;SDS011;34041;51.812;4.622;2023-04-16T11:48:06;15.95;;;9.13;;
48241;SDS011;34041;51.812;4.622;2023-04-16T11:51:07;14.97;;;8.23;;
48241;SDS011;34041;51.812;4.622;2023-04-16T11:54:07;9.13;;;7.45;;
48241;SDS011;34041;51.812;4.622;2023-04-16T11:57:07;14.40;;;8.63;;
48241;SDS011;34041;51.812;4.622;2023-04-16T12:00:08;14.90;;;7.30;;
48241;SDS011;34041;51.812;4.622;2023-04-16T12:03:14;10.02;;;6.70;;
48241;SDS011;34041;51.812;4.622;2023-04-16T12:06:15;12.85;;;6.78;;
48241;SDS011;34041;51.812;4.622;2023-04-16T12:09:25;15.10;;;8.05;;
48241;SDS011;34041;51.812;4.622;2023-04-16T12:12:29;16.02;;;8.60;;
48241;SDS011;34041;51.812;4.622;2023-04-16T12:15:42;12.25;;;8.70;;
48241;SDS011;34041;51.812;4.622;2023-04-16T12:18:57;12.38;;;7.20;;
48241;SDS011;34041;51.812;4.622;2023-04-16T12:24:58;8.60;;;6.53;;
48241;SDS011;34041;51.812;4.622;2023-04-16T12:27:58;12.23;;;7.25;;
48241;SDS011;34041;51.812;4.622;2023-04-16T12:30:59;11.90;;;7.35;;
48241;SDS011;34041;51.812;4.622;2023-04-16T12:34:02;12.13;;;5.95;;
48241;SDS011;34041;51.812;4.622;2023-04-16T12:37:05;8.10;;;5.85;;
48241;SDS011;34041;51.812;4.622;2023-04-16T12:40:05;9.85;;;6.43;;
48241;SDS011;34041;51.812;4.622;2023-04-16T12:43:06;12.93;;;6.85;;
48241;SDS011;34041;51.812;4.622;2023-04-16T12:46:07;11.90;;;8.07;;
48241;SDS011;34041;51.812;4.622;2023-04-16T12:49:08;12.23;;;6.68;;
48241;SDS011;34041;51.812;4.622;2023-04-16T12:52:08;12.27;;;7.65;;
48241;SDS011;34041;51.812;4.622;2023-04-16T12:55:08;14.57;;;7.53;;
48241;SDS011;34041;51.812;4.622;2023-04-16T12:58:09;11.07;;;6.30;;
48241;SDS011;34041;51.812;4.622;2023-04-16T13:01:09;11.88;;;7.25;;
48241;SDS011;34041;51.812;4.622;2023-04-16T13:04:10;12.63;;;7.40;;
48241;SDS011;34041;51.812;4.622;2023-04-16T13:07:11;12.85;;;7.25;;
48241;SDS011;34041;51.812;4.622;2023-04-16T13:10:11;13.90;;;6.07;;
48241;SDS011;34041;51.812;4.622;2023-04-16T13:13:12;10.20;;;6.30;;
48241;SDS011;34041;51.812;4.622;2023-04-16T13:16:12;13.02;;;7.28;;
48241;SDS011;34041;51.812;4.622;2023-04-16T13:19:12;15.98;;;7.90;;
48241;SDS011;34041;51.812;4.622;2023-04-16T13:22:14;11.88;;;8.45;;
48241;SDS011;34041;51.812;4.622;2023-04-16T13:25:15;15.68;;;7.85;;
48241;SDS011;34041;51.812;4.622;2023-04-16T13:28:15;16.43;;;7.53;;
48241;SDS011;34041;51.812;4.622;2023-04-16T13:31:15;15.32;;;8.05;;
48241;SDS011;34041;51.812;4.622;2023-04-16T13:34:19;10.40;;;7.38;;
48241;SDS011;34041;51.812;4.622;2023-04-16T13:37:19;13.27;;;7.73;;
48241;SDS011;34041;51.812;4.622;2023-04-16T13:40:19;13.77;;;7.57;;
48241;SDS011;34041;51.812;4.622;2023-04-16T13:43:20;11.77;;;7.03;;
48241;SDS011;34041;51.812;4.622;2023-04-16T13:46:21;13.95;;;8.57;;
48241;SDS011;34041;51.812;4.622;2023-04-16T13:49:21;12.77;;;8.30;;
48241;SDS011;34041;51.812;4.622;2023-04-16T13:52:22;13.27;;;7.75;;
48241;SDS011;34041;51.812;4.622;2023-04-16T13:55:22;11.20;;;7.27;;
48241;SDS011;34041;51.812;4.622;2023-04-16T13:58:23;17.17;;;7.10;;
48241;SDS011;34041;51.812;4.622;2023-04-16T14:01:23;13.65;;;7.65;;
48241;SDS011;34041;51.812;4.622;2023-04-16T14:04:23;12.20;;;7.77;;
48241;SDS011;34041;51.812;4.622;2023-04-16T14:07:23;15.10;;;7.73;;
48241;SDS011;34041;51.812;4.622;2023-04-16T14:10:26;14.48;;;7.63;;
48241;SDS011;34041;51.812;4.622;2023-04-16T14:13:26;12.20;;;7.50;;
48241;SDS011;34041;51.812;4.622;2023-04-16T14:16:26;11.13;;;8.15;;
48241;SDS011;34041;51.812;4.622;2023-04-16T14:19:27;11.97;;;8.10;;
48241;SDS011;34041;51.812;4.622;2023-04-16T14:22:27;11.63;;;7.77;;
48241;SDS011;34041;51.812;4.622;2023-04-16T14:25:27;12.45;;;7.25;;
48241;SDS011;34041;51.812;4.622;2023-04-16T14:28:27;12.23;;;7.32;;
48241;SDS011;34041;51.812;4.622;2023-04-16T14:31:28;12.18;;;7.32;;
48241;SDS011;34041;51.812;4.622;2023-04-16T14:34:28;255.80;;;71.10;;
48241;SDS011;34041;51.812;4.622;2023-04-16T14:37:28;446.80;;;145.20;;
48241;SDS011;34041;51.812;4.622;2023-04-16T14:40:28;405.05;;;130.27;;
48241;SDS011;34041;51.812;4.622;2023-04-16T14:43:28;373.20;;;133.57;;
48241;SDS011;34041;51.812;4.622;2023-04-16T14:46:29;427.35;;;163.98;;
48241;SDS011;34041;51.812;4.622;2023-04-16T14:49:32;497.30;;;190.43;;
48241;SDS011;34041;51.812;4.622;2023-04-16T14:52:32;471.83;;;184.60;;
48241;SDS011;34041;51.812;4.622;2023-04-16T14:55:33;487.40;;;192.05;;
48241;SDS011;34041;51.812;4.622;2023-04-16T14:58:33;449.02;;;174.32;;
48241;SDS011;34041;51.812;4.622;2023-04-16T15:01:34;163.57;;;59.53;;
48241;SDS011;34041;51.812;4.622;2023-04-16T15:04:38;144.10;;;52.58;;
48241;SDS011;34041;51.812;4.622;2023-04-16T15:07:38;134.48;;;49.28;;
48241;SDS011;34041;51.812;4.622;2023-04-16T15:10:39;75.82;;;29.25;;
48241;SDS011;34041;51.812;4.622;2023-04-16T15:13:41;68.05;;;26.38;;
48241;SDS011;34041;51.812;4.622;2023-04-16T15:16:41;55.90;;;26.80;;
48241;SDS011;34041;51.812;4.622;2023-04-16T15:19:41;101.05;;;36.47;;
48241;SDS011;34041;51.812;4.622;2023-04-16T15:22:42;89.97;;;33.30;;
48241;SDS011;34041;51.812;4.622;2023-04-16T15:25:42;51.60;;;23.10;;
48241;SDS011;34041;51.812;4.622;2023-04-16T15:28:42;67.00;;;28.13;;
48241;SDS011;34041;51.812;4.622;2023-04-16T15:31:42;51.73;;;20.97;;
48241;SDS011;34041;51.812;4.622;2023-04-16T15:34:43;62.47;;;25.08;;
48241;SDS011;34041;51.812;4.622;2023-04-16T15:37:43;46.08;;;17.77;;
48241;SDS011;34041;51.812;4.622;2023-04-16T15:40:43;50.03;;;19.27;;
48241;SDS011;34041;51.812;4.622;2023-04-16T15:43:43;28.80;;;15.18;;
48241;SDS011;34041;51.812;4.622;2023-04-16T15:46:45;60.22;;;24.83;;
48241;SDS011;34041;51.812;4.622;2023-04-16T15:49:45;55.78;;;23.98;;
48241;SDS011;34041;51.812;4.622;2023-04-16T15:52:46;38.23;;;18.37;;
48241;SDS011;34041;51.812;4.622;2023-04-16T15:55:46;30.58;;;14.52;;
48241;SDS011;34041;51.812;4.622;2023-04-16T15:58:49;33.53;;;15.82;;
48241;SDS011;34041;51.812;4.622;2023-04-16T16:01:49;29.17;;;14.93;;
48241;SDS011;34041;51.812;4.622;2023-04-16T16:04:49;26.20;;;13.07;;
48241;SDS011;34041;51.812;4.622;2023-04-16T16:07:50;30.23;;;11.95;;
48241;SDS011;34041;51.812;4.622;2023-04-16T16:10:50;23.35;;;12.65;;
48241;SDS011;34041;51.812;4.622;2023-04-16T16:13:51;26.92;;;11.07;;
48241;SDS011;34041;51.812;4.622;2023-04-16T16:16:51;17.35;;;10.52;;
48241;SDS011;34041;51.812;4.622;2023-04-16T16:19:51;19.70;;;10.15;;
48241;SDS011;34041;51.812;4.622;2023-04-16T16:22:52;23.83;;;10.10;;
48241;SDS011;34041;51.812;4.622;2023-04-16T16:25:52;17.60;;;10.50;;
48241;SDS011;34041;51.812;4.622;2023-04-16T16:28:53;18.40;;;10.82;;
48241;SDS011;34041;51.812;4.622;2023-04-16T16:31:53;27.95;;;11.50;;
48241;SDS011;34041;51.812;4.622;2023-04-16T16:34:54;26.73;;;13.30;;
48241;SDS011;34041;51.812;4.622;2023-04-16T16:37:54;15.63;;;9.95;;
48241;SDS011;34041;51.812;4.622;2023-04-16T16:40:56;16.90;;;10.30;;
48241;SDS011;34041;51.812;4.622;2023-04-16T16:43:56;16.43;;;10.63;;
48241;SDS011;34041;51.812;4.622;2023-04-16T16:46:57;18.02;;;10.35;;
48241;SDS011;34041;51.812;4.622;2023-04-16T16:49:58;23.63;;;10.90;;
48241;SDS011;34041;51.812;4.622;2023-04-16T16:52:58;20.83;;;11.38;;
48241;SDS011;34041;51.812;4.622;2023-04-16T16:55:59;22.92;;;14.25;;
48241;SDS011;34041;51.812;4.622;2023-04-16T16:59:00;20.30;;;13.63;;
48241;SDS011;34041;51.812;4.622;2023-04-16T17:02:00;21.63;;;13.93;;
48241;SDS011;34041;51.812;4.622;2023-04-16T17:05:00;20.33;;;14.10;;
48241;SDS011;34041;51.812;4.622;2023-04-16T17:08:01;19.45;;;13.63;;
48241;SDS011;34041;51.812;4.622;2023-04-16T17:11:02;19.27;;;13.90;;
48241;SDS011;34041;51.812;4.622;2023-04-16T17:14:02;20.48;;;15.07;;
48241;SDS011;34041;51.812;4.622;2023-04-16T17:17:02;19.27;;;14.30;;
48241;SDS011;34041;51.812;4.622;2023-04-16T17:20:03;19.83;;;14.23;;
48241;SDS011;34041;51.812;4.622;2023-04-16T17:23:08;20.70;;;14.65;;
48241;SDS011;34041;51.812;4.622;2023-04-16T17:26:09;17.87;;;13.87;;
48241;SDS011;34041;51.812;4.622;2023-04-16T17:29:10;17.05;;;13.20;;
48241;SDS011;34041;51.812;4.622;2023-04-16T17:32:10;23.20;;;12.37;;
48241;SDS011;34041;51.812;4.622;2023-04-16T17:35:10;18.88;;;12.77;;
48241;SDS011;34041;51.812;4.622;2023-04-16T17:38:12;19.67;;;12.63;;
48241;SDS011;34041;51.812;4.622;2023-04-16T17:41:12;21.07;;;12.67;;
48241;SDS011;34041;51.812;4.622;2023-04-16T17:44:13;17.30;;;12.07;;
48241;SDS011;34041;51.812;4.622;2023-04-16T17:47:13;18.95;;;12.05;;
48241;SDS011;34041;51.812;4.622;2023-04-16T17:50:13;17.73;;;13.83;;
48241;SDS011;34041;51.812;4.622;2023-04-16T17:53:13;15.47;;;10.33;;
48241;SDS011;34041;51.812;4.622;2023-04-16T17:56:14;19.90;;;11.07;;
48241;SDS011;34041;51.812;4.622;2023-04-16T17:59:14;25.13;;;12.50;;